Time;durP1;ratioP1;P1;durP2;ratioP2;P2;SDS_P1;SDS_P2;PMS_P1;PMS_P2;Temp;Humidity;BMP_temperature;BMP_pressure;BME280_temperature;BME280_humidity;BME280_pressure;Samples;Min_cycle;Max_cycle;Signal;HPM_P1;HPM_P2
2023/11/17 00:01:41;;;;;;;2.85;2.22;;;22.40;55.50;;;;;;10321976;28;20225;-43
2023/11/17 00:06:45;;;;;;;3.33;2.20;;;22.40;55.50;;;;;;10333710;28;20739;-45
2023/11/17 00:11:48;;;;;;;2.83;2.00;;;22.40;55.60;;;;;;10332890;28;20233;-44
2023/11/17 00:16:53;;;;;;;3.10;1.88;;;22.40;55.50;;;;;;10333461;28;20272;-44
2023/11/17 00:21:58;;;;;;;3.15;2.08;;;22.40;56.20;;;;;;10336521;28;20201;-47
2023/11/17 00:27:01;;;;;;;4.85;2.45;;;22.40;55.50;;;;;;10332993;28;20272;-47
2023/11/17 00:32:06;;;;;;;2.33;1.98;;;22.40;55.50;;;;;;10333570;28;20248;-43
2023/11/17 00:37:10;;;;;;;2.63;1.73;;;22.40;55.50;;;;;;10332824;28;20245;-44
2023/11/17 00:42:14;;;;;;;3.83;2.13;;;22.40;55.50;;;;;;10332214;28;20221;-49
2023/11/17 00:47:19;;;;;;;2.83;1.77;;;22.40;56.20;;;;;;10333155;28;20249;-45
2023/11/17 00:52:23;;;;;;;4.10;2.13;;;22.40;55.50;;;;;;10334728;28;20662;-44
2023/11/17 00:57:26;;;;;;;2.00;1.80;;;22.40;55.50;;;;;;10345216;28;20218;-45
2023/11/17 01:02:31;;;;;;;3.35;1.80;;;22.40;55.50;;;;;;10325521;28;20206;-44
2023/11/17 01:07:35;;;;;;;3.17;2.15;;;22.40;55.50;;;;;;10329802;28;20248;-45
2023/11/17 01:12:39;;;;;;;2.13;1.88;;;22.40;55.50;;;;;;10327333;28;20676;-44
2023/11/17 01:17:45;;;;;;;2.47;1.80;;;22.40;55.50;;;;;;10330428;28;20225;-46
2023/11/17 01:22:49;;;;;;;3.78;1.95;;;22.40;55.50;;;;;;10331920;28;20221;-46
2023/11/17 01:27:52;;;;;;;3.40;1.83;;;22.40;55.50;;;;;;10331241;28;20689;-45
2023/11/17 01:32:57;;;;;;;3.47;1.63;;;22.30;55.40;;;;;;10332241;28;20702;-45
2023/11/17 01:38:02;;;;;;;2.47;1.90;;;22.30;55.40;;;;;;10328287;28;20897;-43
2023/11/17 01:43:06;;;;;;;2.80;1.90;;;22.40;55.50;;;;;;10331200;28;20206;-45
2023/11/17 01:48:12;;;;;;;3.03;1.60;;;22.30;55.40;;;;;;10330742;28;20335;-45
2023/11/17 01:53:17;;;;;;;3.22;2.13;;;22.30;55.40;;;;;;10332528;28;20673;-45
2023/11/17 01:58:22;;;;;;;3.58;1.70;;;22.40;55.50;;;;;;10324205;28;20218;-45
2023/11/17 02:03:27;;;;;;;4.35;2.20;;;22.30;55.40;;;;;;10329592;28;20205;-45
2023/11/17 02:08:43;;;;;;;2.45;1.80;;;22.30;55.40;;;;;;10328111;28;20234;-47
2023/11/17 02:13:52;;;;;;;2.72;1.65;;;22.30;55.40;;;;;;10326475;28;20209;-46
2023/11/17 02:19:01;;;;;;;3.05;1.63;;;22.30;55.40;;;;;;10328822;28;20248;-44
2023/11/17 02:24:06;;;;;;;2.97;2.03;;;22.30;55.40;;;;;;10332966;28;20198;-44
2023/11/17 02:29:27;;;;;;;2.85;1.95;;;22.30;55.40;;;;;;10325942;28;20697;-45
2023/11/17 02:34:31;;;;;;;2.60;1.70;;;22.30;55.40;;;;;;10326513;28;20202;-45
2023/11/17 02:39:38;;;;;;;3.45;1.75;;;22.30;55.40;;;;;;10325787;28;20240;-46
2023/11/17 02:44:44;;;;;;;3.08;1.60;;;22.30;55.40;;;;;;10337032;28;20626;-44
2023/11/17 02:49:52;;;;;;;2.90;1.92;;;22.30;55.70;;;;;;10332813;28;20236;-47
2023/11/17 02:54:58;;;;;;;2.33;1.67;;;22.30;55.40;;;;;;10327227;28;20705;-44
2023/11/17 03:00:03;;;;;;;2.55;1.80;;;22.30;55.40;;;;;;10329060;28;20279;-46
2023/11/17 03:05:08;;;;;;;2.80;1.77;;;22.30;55.40;;;;;;10329103;28;20257;-47
2023/11/17 03:10:12;;;;;;;2.53;1.60;;;22.30;55.40;;;;;;10321586;28;20770;-44
2023/11/17 03:15:17;;;;;;;2.80;1.60;;;22.30;55.40;;;;;;10325999;28;20245;-46
2023/11/17 03:20:21;;;;;;;2.20;1.80;;;22.30;55.40;;;;;;10328971;28;20205;-44
2023/11/17 03:25:25;;;;;;;3.42;1.52;;;22.30;55.40;;;;;;10340683;28;20244;-50
2023/11/17 03:30:30;;;;;;;1.90;1.80;;;22.30;55.40;;;;;;10330336;28;20206;-46
2023/11/17 03:35:34;;;;;;;3.30;1.83;;;22.30;55.40;;;;;;10328414;28;20279;-46
2023/11/17 03:40:38;;;;;;;2.30;2.10;;;22.30;55.40;;;;;;10338489;28;20255;-46
2023/11/17 03:45:48;;;;;;;2.00;1.67;;;22.30;55.40;;;;;;10336882;28;20709;-47
2023/11/17 03:50:52;;;;;;;2.00;1.67;;;22.30;55.40;;;;;;10334387;28;20209;-46
2023/11/17 03:55:56;;;;;;;2.50;1.65;;;22.30;55.40;;;;;;10336165;28;20222;-47
2023/11/17 04:01:01;;;;;;;1.73;1.55;;;22.30;55.40;;;;;;10330199;28;20206;-44
2023/11/17 04:06:05;;;;;;;1.88;1.70;;;22.30;55.40;;;;;;10333864;28;20315;-47
2023/11/17 04:11:13;;;;;;;2.45;1.85;;;22.30;55.40;;;;;;10337071;28;20256;-45
2023/11/17 04:16:18;;;;;;;2.03;1.83;;;22.30;55.40;;;;;;10334689;28;20285;-46
2023/11/17 04:21:22;;;;;;;3.30;1.77;;;22.30;55.40;;;;;;10336211;28;20201;-45
2023/11/17 04:26:26;;;;;;;2.25;1.73;;;22.30;55.50;;;;;;10333516;28;20765;-46
2023/11/17 04:31:31;;;;;;;3.05;2.40;;;22.30;55.30;;;;;;10329569;28;20257;-47
2023/11/17 04:36:35;;;;;;;2.25;1.80;;;22.30;55.30;;;;;;10326367;28;20249;-53
2023/11/17 04:41:38;;;;;;;3.03;2.20;;;22.30;55.20;;;;;;10334723;28;20260;-48
2023/11/17 04:46:43;;;;;;;2.88;2.20;;;22.40;55.30;;;;;;10340281;28;20407;-48
2023/11/17 04:51:47;;;;;;;2.40;2.00;;;22.40;55.90;;;;;;10333017;28;20240;-46
2023/11/17 04:56:51;;;;;;;3.10;2.58;;;22.40;55.20;;;;;;10333023;28;20270;-48
2023/11/17 05:01:56;;;;;;;4.07;2.45;;;22.30;55.20;;;;;;10334394;28;20300;-43
2023/11/17 05:07:00;;;;;;;4.53;2.90;;;22.30;55.20;;;;;;10329541;28;20307;-45
2023/11/17 05:12:04;;;;;;;8.82;3.03;;;22.30;55.30;;;;;;10330280;28;20206;-49
2023/11/17 05:17:15;;;;;;;14.98;3.42;;;22.30;55.30;;;;;;10352224;28;20245;-52
2023/11/17 05:22:18;;;;;;;10.90;3.00;;;22.50;55.40;;;;;;10327284;28;20199;-46
2023/11/17 05:27:24;;;;;;;26.38;4.85;;;22.50;55.30;;;;;;10338193;28;20256;-49
2023/11/17 05:32:29;;;;;;;17.25;4.63;;;22.60;55.30;;;;;;10325230;28;20897;-56
2023/11/17 05:37:33;;;;;;;15.77;4.13;;;22.60;55.30;;;;;;10335815;28;20230;-52
2023/11/17 05:42:37;;;;;;;15.40;3.88;;;22.70;55.30;;;;;;10325409;28;20244;-56
2023/11/17 05:47:43;;;;;;;10.52;3.92;;;22.80;55.30;;;;;;10355874;28;20233;-47
2023/11/17 05:52:47;;;;;;;9.88;4.45;;;22.90;55.20;;;;;;10347562;28;20590;-53
2023/11/17 05:57:50;;;;;;;7.35;3.95;;;23.00;55.20;;;;;;10333842;28;20221;-54
2023/11/17 06:02:55;;;;;;;9.60;4.10;;;23.00;55.00;;;;;;10346645;28;20282;-53
2023/11/17 06:07:59;;;;;;;12.93;4.97;;;23.10;55.00;;;;;;10332203;28;20261;-59
2023/11/17 06:13:04;;;;;;;9.60;4.50;;;23.20;55.00;;;;;;10346576;28;20205;-53
2023/11/17 06:18:09;;;;;;;9.50;4.97;;;23.20;55.00;;;;;;10326881;28;20222;-50
2023/11/17 06:23:13;;;;;;;14.63;5.50;;;23.30;55.10;;;;;;10333903;28;20236;-47
2023/11/17 06:28:16;;;;;;;10.57;4.93;;;23.30;55.70;;;;;;10342498;28;20226;-65
2023/11/17 06:33:22;;;;;;;13.15;5.95;;;23.40;55.10;;;;;;10337351;28;20249;-62
2023/11/17 06:38:25;;;;;;;10.13;5.97;;;23.40;55.00;;;;;;10328761;28;20213;-45
2023/11/17 06:43:29;;;;;;;12.43;6.40;;;23.40;55.00;;;;;;10334013;28;20249;-58
2023/11/17 06:48:37;;;;;;;16.83;6.18;;;23.40;55.00;;;;;;10345750;28;20256;-53
2023/11/17 06:53:41;;;;;;;10.90;5.55;;;23.40;55.00;;;;;;10334802;28;20225;-55
2023/11/17 06:58:45;;;;;;;12.07;5.38;;;23.50;55.00;;;;;;10347798;28;20222;-53
2023/11/17 07:03:50;;;;;;;8.20;5.97;;;23.50;55.00;;;;;;10349960;28;20201;-53
2023/11/17 07:08:53;;;;;;;10.98;5.90;;;23.50;55.00;;;;;;10342036;28;20702;-55
2023/11/17 07:14:01;;;;;;;13.55;6.35;;;23.50;55.00;;;;;;10343056;28;20233;-54
2023/11/17 07:19:08;;;;;;;10.50;5.95;;;23.40;54.90;;;;;;10340116;28;20221;-55
2023/11/17 07:24:14;;;;;;;10.18;5.82;;;23.40;54.90;;;;;;10323861;28;20731;-48
2023/11/17 07:29:18;;;;;;;7.55;5.60;;;23.50;55.00;;;;;;10362051;28;20225;-51
2023/11/17 07:34:22;;;;;;;10.35;5.45;;;23.50;55.00;;;;;;10341716;28;20229;-47
2023/11/17 07:39:27;;;;;;;29.67;7.22;;;23.50;55.00;;;;;;10343098;28;20236;-48
2023/11/17 07:44:30;;;;;;;36.85;7.00;;;23.50;54.90;;;;;;10339692;28;20198;-48
2023/11/17 07:49:35;;;;;;;11.77;5.57;;;23.50;54.90;;;;;;10337372;28;20229;-48
2023/11/17 07:54:42;;;;;;;17.17;5.70;;;23.40;54.90;;;;;;10340663;28;20237;-49
2023/11/17 07:59:46;;;;;;;20.40;5.90;;;23.30;54.90;;;;;;10334646;28;20221;-50
2023/11/17 08:04:51;;;;;;;16.63;13.52;;;23.30;55.00;;;;;;10333837;28;20204;-57
2023/11/17 08:09:56;;;;;;;13.65;8.02;;;22.90;51.20;;;;;;10333157;28;20253;-57
2023/11/17 08:15:00;;;;;;;11.60;7.00;;;22.20;52.90;;;;;;10355590;28;20205;-51
2023/11/17 08:20:06;;;;;;;10.07;6.20;;;22.30;53.80;;;;;;10349059;28;20735;-56
2023/11/17 08:25:11;;;;;;;9.80;6.07;;;22.50;54.00;;;;;;10341717;28;20204;-55
2023/11/17 08:30:15;;;;;;;12.40;6.78;;;22.60;54.10;;;;;;10339791;28;20252;-48
2023/11/17 08:35:22;;;;;;;11.15;7.07;;;22.70;54.30;;;;;;10343271;28;20218;-48
2023/11/17 08:40:26;;;;;;;10.07;5.90;;;22.80;54.30;;;;;;10338224;28;20689;-56
2023/11/17 08:45:29;;;;;;;11.05;6.65;;;22.90;54.30;;;;;;10339780;28;20225;-54
2023/11/17 08:50:34;;;;;;;11.15;6.22;;;23.00;54.50;;;;;;10335852;28;20264;-56
2023/11/17 08:55:38;;;;;;;9.98;6.65;;;23.20;54.50;;;;;;10324133;28;20313;-54
2023/11/17 09:00:42;;;;;;;11.00;6.18;;;23.20;54.50;;;;;;10345244;28;20569;-54
2023/11/17 09:05:48;;;;;;;9.25;6.25;;;23.20;54.50;;;;;;10303672;28;20260;-47
2023/11/17 09:10:52;;;;;;;8.43;5.85;;;23.20;54.50;;;;;;10338658;28;20639;-54
2023/11/17 09:15:56;;;;;;;7.90;5.75;;;23.10;54.50;;;;;;10333120;28;20264;-51
2023/11/17 09:21:01;;;;;;;8.40;5.88;;;23.10;54.50;;;;;;10334155;28;20665;-52
2023/11/17 09:26:07;;;;;;;10.00;6.10;;;23.10;54.50;;;;;;10331799;28;20710;-49
2023/11/17 09:31:12;;;;;;;8.75;5.97;;;23.00;54.50;;;;;;10337803;28;20249;-49
2023/11/17 09:36:17;;;;;;;9.55;6.40;;;23.00;55.10;;;;;;10349322;28;20995;-49
2023/11/17 09:41:21;;;;;;;11.45;6.50;;;23.00;55.10;;;;;;10331925;28;20226;-48
2023/11/17 09:46:32;;;;;;;8.30;5.85;;;23.00;54.50;;;;;;10329517;28;20272;-48
2023/11/17 09:51:37;;;;;;;7.57;5.78;;;23.00;54.50;;;;;;10338914;28;20256;-46
2023/11/17 09:56:43;;;;;;;9.88;6.03;;;23.00;54.50;;;;;;10330468;28;20337;-47
2023/11/17 10:01:49;;;;;;;9.65;6.10;;;23.00;54.50;;;;;;10330272;28;20197;-49
2023/11/17 10:06:56;;;;;;;11.07;6.90;;;23.00;54.70;;;;;;10337887;28;20230;-50
2023/11/17 10:12:01;;;;;;;11.73;6.13;;;23.00;54.80;;;;;;10338060;28;20245;-50
2023/11/17 10:17:07;;;;;;;9.75;6.35;;;22.90;54.70;;;;;;10333069;28;20315;-52
2023/11/17 10:22:13;;;;;;;12.68;6.07;;;22.90;54.80;;;;;;10358417;28;20197;-52
2023/11/17 10:27:20;;;;;;;11.80;6.05;;;22.80;54.70;;;;;;10351177;28;20229;-52
2023/11/17 10:32:28;;;;;;;9.95;6.03;;;22.80;54.80;;;;;;10342136;28;20228;-52
2023/11/17 10:37:58;;;;;;;8.50;6.40;;;22.80;54.80;;;;;;10345729;28;20592;-52
2023/11/17 10:43:04;;;;;;;10.20;5.75;;;22.70;54.70;;;;;;10323592;28;20225;-52
2023/11/17 10:48:13;;;;;;;15.20;6.80;;;22.70;54.70;;;;;;10341370;28;20292;-53
2023/11/17 10:53:20;;;;;;;8.48;6.47;;;22.70;54.80;;;;;;10338305;28;20676;-49
2023/11/17 10:58:25;;;;;;;11.07;5.93;;;22.70;54.80;;;;;;10343000;28;20639;-54
2023/11/17 11:03:29;;;;;;;12.32;5.95;;;22.80;54.80;;;;;;10330528;28;20202;-48
2023/11/17 11:08:35;;;;;;;10.02;5.55;;;22.80;54.80;;;;;;10340460;28;20872;-47
2023/11/17 11:13:38;;;;;;;8.75;5.90;;;22.70;54.80;;;;;;10342031;28;20204;-49
2023/11/17 11:18:46;;;;;;;8.05;5.90;;;22.70;54.80;;;;;;10355119;28;20275;-50
2023/11/17 11:23:55;;;;;;;10.25;5.80;;;22.70;54.90;;;;;;10341093;28;20669;-50
2023/11/17 11:28:59;;;;;;;10.23;5.70;;;22.60;54.80;;;;;;10351447;28;20708;-51
2023/11/17 11:34:03;;;;;;;12.23;5.95;;;22.60;54.80;;;;;;10319371;28;20237;-48
2023/11/17 11:39:08;;;;;;;10.73;5.60;;;22.60;54.90;;;;;;10334350;28;20245;-46
2023/11/17 11:44:12;;;;;;;9.95;5.93;;;22.60;54.90;;;;;;10354679;28;20206;-48
2023/11/17 11:49:17;;;;;;;11.43;6.07;;;22.70;55.00;;;;;;10340779;28;20256;-59
2023/11/17 11:54:23;;;;;;;12.98;6.18;;;22.70;54.90;;;;;;10337102;28;20205;-51
2023/11/17 11:59:28;;;;;;;9.35;5.45;;;22.80;55.00;;;;;;10341516;28;20225;-52
2023/11/17 12:04:31;;;;;;;11.77;5.22;;;22.70;54.90;;;;;;10355916;28;20202;-49
2023/11/17 12:09:39;;;;;;;11.57;5.43;;;22.70;54.90;;;;;;10360320;28;20795;-51
2023/11/17 12:14:44;;;;;;;10.95;6.10;;;22.80;55.60;;;;;;10359582;28;20213;-47
2023/11/17 12:19:49;;;;;;;8.75;5.10;;;22.90;55.00;;;;;;10368087;28;20213;-44
2023/11/17 12:25:00;;;;;;;12.98;5.22;;;22.90;54.90;;;;;;10352181;28;20193;-49
2023/11/17 12:30:05;;;;;;;9.20;5.47;;;22.90;54.90;;;;;;10343151;28;20287;-47
2023/11/17 12:35:11;;;;;;;9.73;5.32;;;23.00;55.00;;;;;;10323974;28;20202;-47
2023/11/17 12:40:18;;;;;;;7.35;5.40;;;23.00;55.00;;;;;;10334610;28;20209;-46
2023/11/17 12:45:22;;;;;;;7.80;5.03;;;23.00;55.00;;;;;;10346133;28;20275;-51
2023/11/17 12:50:39;;;;;;;8.30;5.63;;;23.10;55.00;;;;;;10345960;28;20647;-48
2023/11/17 12:55:48;;;;;;;16.73;5.55;;;23.10;55.10;;;;;;10354764;28;20598;-48
2023/11/17 13:00:52;;;;;;;9.45;5.18;;;23.10;55.00;;;;;;10360438;28;20243;-49
2023/11/17 13:05:56;;;;;;;9.80;5.40;;;23.10;55.00;;;;;;10334728;28;20217;-53
2023/11/17 13:11:02;;;;;;;7.78;5.20;;;23.10;55.10;;;;;;10310928;28;20248;-51
2023/11/17 13:16:09;;;;;;;8.82;4.55;;;23.00;55.00;;;;;;10336868;28;20225;-49
2023/11/17 13:21:18;;;;;;;10.10;4.45;;;23.00;55.00;;;;;;10313818;28;20665;-46
2023/11/17 13:26:28;;;;;;;6.40;4.45;;;23.00;55.00;;;;;;10345561;28;20221;-51
2023/11/17 13:31:31;;;;;;;9.85;5.10;;;23.00;55.10;;;;;;10345634;28;20221;-49
2023/11/17 13:36:36;;;;;;;8.75;4.75;;;22.90;55.00;;;;;;10344331;28;20249;-47
2023/11/17 13:41:42;;;;;;;8.00;4.40;;;22.90;55.00;;;;;;10335315;28;20197;-47
2023/11/17 13:46:49;;;;;;;8.48;5.25;;;22.90;55.10;;;;;;10315765;28;21739;-46
2023/11/17 13:51:57;;;;;;;8.38;4.80;;;22.90;55.10;;;;;;10324418;28;20247;-48
2023/11/17 13:57:05;;;;;;;8.15;5.53;;;22.90;55.10;;;;;;10344305;28;20268;-48
2023/11/17 14:02:09;;;;;;;8.43;5.55;;;22.90;55.20;;;;;;10338344;28;20886;-49
2023/11/17 14:07:14;;;;;;;10.32;5.75;;;22.90;55.20;;;;;;10355119;28;20266;-50
2023/11/17 14:12:21;;;;;;;8.68;5.38;;;22.90;55.20;;;;;;10351627;28;20253;-48
2023/11/17 14:17:24;;;;;;;8.65;6.13;;;22.90;55.20;;;;;;10341879;28;20217;-52
2023/11/17 14:22:29;;;;;;;18.98;7.60;;;22.90;55.30;;;;;;10322579;28;20245;-50
2023/11/17 14:27:34;;;;;;;10.80;7.00;;;22.90;55.30;;;;;;10348041;28;20271;-49
2023/11/17 14:32:38;;;;;;;11.85;7.82;;;22.90;55.30;;;;;;10351419;28;20240;-47
2023/11/17 14:37:44;;;;;;;11.23;6.93;;;22.90;55.30;;;;;;10328001;28;20217;-47
2023/11/17 14:42:51;;;;;;;14.45;7.22;;;22.90;55.30;;;;;;10338362;28;20233;-50
2023/11/17 14:47:54;;;;;;;12.23;7.70;;;22.90;55.30;;;;;;10346319;28;20279;-54
2023/11/17 14:53:00;;;;;;;12.02;7.40;;;22.80;55.10;;;;;;10333022;28;20225;-50
2023/11/17 14:58:08;;;;;;;13.70;7.15;;;22.80;55.10;;;;;;10349657;28;20798;-51
2023/11/17 15:03:13;;;;;;;11.95;6.68;;;22.80;55.00;;;;;;10342874;28;20556;-49
2023/11/17 15:08:20;;;;;;;12.85;7.55;;;22.80;55.00;;;;;;10317517;28;20303;-59
2023/11/17 15:13:25;;;;;;;9.52;6.80;;;22.80;55.00;;;;;;10348496;28;20216;-54
2023/11/17 15:18:31;;;;;;;10.93;6.78;;;22.90;55.00;;;;;;10334068;28;20233;-58
2023/11/17 15:23:34;;;;;;;9.75;7.13;;;22.90;55.00;;;;;;10346017;28;20779;-58
2023/11/17 15:28:39;;;;;;;10.23;6.32;;;22.90;55.00;;;;;;10332159;28;20228;-53
2023/11/17 15:33:43;;;;;;;9.52;6.30;;;23.00;55.00;;;;;;10364017;28;20259;-48
2023/11/17 15:38:47;;;;;;;10.68;6.57;;;23.00;55.00;;;;;;10353298;28;20221;-61
2023/11/17 15:43:52;;;;;;;7.90;6.22;;;23.10;55.10;;;;;;10353406;28;20666;-50
2023/11/17 15:48:58;;;;;;;9.27;6.25;;;23.10;55.10;;;;;;10342234;28;20229;-58
2023/11/17 15:54:02;;;;;;;10.38;6.68;;;23.10;55.20;;;;;;10345342;28;20216;-56
2023/11/17 15:59:08;;;;;;;10.55;6.22;;;23.20;55.30;;;;;;10309117;28;20217;-55
2023/11/17 16:04:15;;;;;;;9.88;6.63;;;23.20;55.30;;;;;;10281585;28;20248;-48
2023/11/17 16:09:26;;;;;;;9.63;6.55;;;22.40;57.70;;;;;;10351453;28;20678;-49
2023/11/17 16:14:31;;;;;;;20.23;7.07;;;21.80;58.80;;;;;;10322292;28;20677;-50
2023/11/17 16:19:34;;;;;;;14.57;6.50;;;21.80;59.20;;;;;;10319118;28;20230;-48
2023/11/17 16:24:38;;;;;;;14.30;6.50;;;21.70;59.20;;;;;;10346506;28;20291;-48
2023/11/17 16:29:44;;;;;;;10.63;6.35;;;21.60;59.30;;;;;;10341801;28;20248;-48
2023/11/17 16:34:48;;;;;;;10.77;6.45;;;21.60;59.70;;;;;;10345360;28;20214;-50
2023/11/17 16:39:55;;;;;;;10.38;7.00;;;21.50;60.20;;;;;;10344630;28;20267;-49
2023/11/17 16:45:02;;;;;;;9.65;6.55;;;21.50;60.20;;;;;;10340899;28;20193;-51
2023/11/17 16:50:07;;;;;;;14.88;6.95;;;21.40;60.10;;;;;;10354778;28;20807;-50
2023/11/17 16:55:11;;;;;;;10.55;6.93;;;21.40;60.00;;;;;;10344672;28;20210;-48
2023/11/17 17:00:20;;;;;;;8.75;7.38;;;21.40;60.00;;;;;;10286195;28;20228;-47
2023/11/17 17:05:24;;;;;;;11.77;7.53;;;21.40;60.20;;;;;;10334342;28;20284;-50
2023/11/17 17:10:29;;;;;;;10.25;7.45;;;21.30;60.30;;;;;;10348707;28;20813;-49
2023/11/17 17:15:36;;;;;;;9.60;7.82;;;21.30;60.30;;;;;;10342380;28;20225;-49
2023/11/17 17:20:40;;;;;;;13.80;8.90;;;21.30;60.30;;;;;;10339161;28;20237;-47
2023/11/17 17:25:44;;;;;;;12.13;8.18;;;21.20;60.10;;;;;;10357484;28;20230;-48
2023/11/17 17:30:49;;;;;;;14.07;9.05;;;21.20;60.20;;;;;;10344176;28;20326;-48
2023/11/17 17:35:53;;;;;;;11.27;8.98;;;21.20;60.10;;;;;;10346530;28;20243;-47
2023/11/17 17:40:57;;;;;;;11.35;8.32;;;21.20;60.30;;;;;;10345950;28;20205;-47
2023/11/17 17:46:02;;;;;;;14.25;9.38;;;21.20;60.40;;;;;;10352474;28;20225;-45
2023/11/17 17:51:07;;;;;;;12.48;8.75;;;21.20;60.40;;;;;;10350086;28;20786;-47
2023/11/17 17:56:10;;;;;;;11.73;8.48;;;21.10;60.50;;;;;;10340563;28;20255;-47
2023/11/17 18:01:15;;;;;;;13.40;9.48;;;21.20;60.50;;;;;;10331311;28;20580;-46
2023/11/17 18:06:19;;;;;;;15.70;9.85;;;21.10;60.50;;;;;;10333655;28;20237;-46
2023/11/17 18:11:25;;;;;;;13.43;9.77;;;21.10;60.50;;;;;;10339131;28;20253;-49
2023/11/17 18:16:30;;;;;;;13.15;9.40;;;21.10;60.50;;;;;;10326287;28;20264;-46
2023/11/17 18:21:34;;;;;;;13.82;9.10;;;21.10;60.50;;;;;;10325390;28;20264;-47
2023/11/17 18:26:37;;;;;;;12.60;9.23;;;21.10;60.50;;;;;;10349258;28;20291;-48
2023/11/17 18:32:00;;;;;;;12.45;9.32;;;21.10;60.60;;;;;;10347404;28;20322;-46
2023/11/17 18:37:05;;;;;;;11.40;8.93;;;21.10;60.60;;;;;;10344523;28;20221;-47
2023/11/17 18:42:10;;;;;;;12.82;10.32;;;21.10;60.80;;;;;;10339295;28;20248;-47
2023/11/17 18:47:14;;;;;;;12.90;9.93;;;21.10;60.70;;;;;;10339907;28;20229;-46
2023/11/17 18:52:19;;;;;;;11.38;10.02;;;21.10;60.60;;;;;;10334632;28;20217;-46
2023/11/17 18:57:22;;;;;;;13.63;10.27;;;21.10;60.60;;;;;;10328628;28;20221;-46
2023/11/17 19:02:27;;;;;;;12.07;9.68;;;21.10;60.50;;;;;;10338649;28;20198;-47
2023/11/17 19:07:31;;;;;;;13.65;10.45;;;21.10;60.40;;;;;;10334320;28;20224;-48
2023/11/17 19:12:35;;;;;;;13.50;10.48;;;21.10;60.50;;;;;;10329867;28;20302;-48
2023/11/17 19:17:41;;;;;;;13.90;10.25;;;21.10;60.60;;;;;;10353880;28;20249;-46
2023/11/17 19:22:45;;;;;;;11.20;9.98;;;21.00;60.50;;;;;;10333836;28;20233;-45
2023/11/17 19:27:49;;;;;;;13.35;10.32;;;21.10;60.50;;;;;;10339280;28;20326;-45
2023/11/17 19:32:55;;;;;;;11.73;10.15;;;21.10;60.70;;;;;;10354365;28;20216;-47
2023/11/17 19:37:59;;;;;;;13.65;10.93;;;21.10;60.70;;;;;;10338127;28;20264;-46
2023/11/17 19:43:04;;;;;;;11.75;10.10;;;21.00;60.50;;;;;;10356593;28;20259;-46
2023/11/17 19:48:09;;;;;;;17.20;10.77;;;21.10;60.80;;;;;;10347524;28;20271;-48
2023/11/17 19:53:15;;;;;;;12.63;10.48;;;21.10;60.70;;;;;;10338059;28;20295;-46
2023/11/17 19:58:18;;;;;;;12.88;9.57;;;21.10;60.80;;;;;;10354242;28;20275;-45
2023/11/17 20:03:25;;;;;;;11.85;9.88;;;21.10;60.70;;;;;;10340838;28;20247;-48
2023/11/17 20:08:29;;;;;;;10.82;9.55;;;21.10;60.70;;;;;;10341109;28;20268;-45
2023/11/17 20:13:33;;;;;;;12.27;9.55;;;21.10;60.80;;;;;;10339371;28;20225;-45
2023/11/17 20:18:38;;;;;;;13.90;9.98;;;21.00;60.60;;;;;;10343150;28;20768;-45
2023/11/17 20:23:42;;;;;;;14.30;10.82;;;21.00;60.50;;;;;;10339420;28;20221;-46
2023/11/17 20:28:45;;;;;;;11.95;9.55;;;21.00;60.50;;;;;;10343608;28;20276;-45
2023/11/17 20:33:51;;;;;;;11.95;10.32;;;21.00;60.40;;;;;;10358213;28;20302;-46
2023/11/17 20:38:55;;;;;;;11.93;10.23;;;21.00;60.50;;;;;;10341854;28;20771;-47
2023/11/17 20:43:58;;;;;;;11.20;9.68;;;21.00;60.30;;;;;;10334088;28;20229;-46
2023/11/17 20:49:05;;;;;;;12.35;9.95;;;21.00;61.00;;;;;;10360152;28;20295;-46
2023/11/17 20:54:12;;;;;;;11.57;10.25;;;21.00;60.10;;;;;;10351911;28;20244;-45
2023/11/17 20:59:17;;;;;;;21.77;10.65;;;21.00;60.10;;;;;;10335091;28;20697;-48
2023/11/17 21:04:22;;;;;;;17.10;10.73;;;21.00;60.70;;;;;;10352980;28;20660;-49
2023/11/17 21:09:27;;;;;;;16.02;10.75;;;21.00;59.80;;;;;;10341933;28;20325;-46
2023/11/17 21:14:31;;;;;;;14.18;10.30;;;21.00;59.80;;;;;;10345925;28;20247;-47
2023/11/17 21:19:36;;;;;;;13.88;10.18;;;21.00;59.80;;;;;;10353600;28;20229;-49
2023/11/17 21:24:39;;;;;;;11.57;9.55;;;21.00;59.80;;;;;;10359065;28;20198;-46
2023/11/17 21:29:43;;;;;;;13.13;9.70;;;20.90;59.70;;;;;;10334779;28;20225;-46
2023/11/17 21:34:49;;;;;;;13.18;10.70;;;21.00;59.80;;;;;;10361061;28;20253;-47
2023/11/17 21:39:53;;;;;;;12.02;10.32;;;21.00;59.80;;;;;;10344859;28;20225;-46
2023/11/17 21:44:56;;;;;;;12.20;9.70;;;21.00;59.60;;;;;;10362956;28;20197;-47
2023/11/17 21:50:02;;;;;;;10.95;9.75;;;20.90;59.60;;;;;;10340863;28;20592;-46
2023/11/17 21:55:09;;;;;;;10.88;9.75;;;20.90;59.50;;;;;;10346334;28;20221;-46
2023/11/17 22:00:16;;;;;;;11.77;10.02;;;20.90;59.50;;;;;;10347572;28;20624;-46
2023/11/17 22:05:22;;;;;;;10.65;8.68;;;20.90;59.40;;;;;;10342725;28;20244;-48
2023/11/17 22:10:26;;;;;;;12.32;9.55;;;20.90;59.40;;;;;;10340623;28;20205;-47
2023/11/17 22:15:31;;;;;;;10.27;9.18;;;20.90;59.40;;;;;;10333455;28;20225;-47
2023/11/17 22:20:36;;;;;;;11.48;9.38;;;20.90;59.40;;;;;;10340531;28;20206;-46
2023/11/17 22:25:40;;;;;;;10.35;9.27;;;20.90;59.40;;;;;;10335127;28;20213;-46
2023/11/17 22:30:45;;;;;;;12.48;9.43;;;20.90;59.30;;;;;;10333119;28;20245;-47
2023/11/17 22:35:50;;;;;;;10.00;8.50;;;20.90;59.30;;;;;;10327758;28;20299;-45
2023/11/17 22:40:54;;;;;;;11.15;9.60;;;20.90;59.30;;;;;;10335156;28;20268;-46
2023/11/17 22:45:57;;;;;;;10.02;8.90;;;20.90;59.20;;;;;;10338332;28;20268;-46
2023/11/17 22:51:03;;;;;;;10.82;8.82;;;20.90;59.20;;;;;;10331464;28;20223;-46
2023/11/17 22:56:08;;;;;;;9.93;8.93;;;20.90;59.20;;;;;;10341841;28;20221;-47
2023/11/17 23:01:16;;;;;;;10.07;8.95;;;20.90;59.10;;;;;;10333034;28;20232;-46
2023/11/17 23:06:21;;;;;;;9.68;8.60;;;21.00;59.40;;;;;;10338793;28;20210;-47
2023/11/17 23:11:25;;;;;;;10.80;9.13;;;21.00;58.70;;;;;;10332450;28;20197;-49
2023/11/17 23:16:29;;;;;;;9.30;8.30;;;21.00;58.50;;;;;;10324168;28;20307;-47
2023/11/17 23:21:34;;;;;;;9.75;8.75;;;20.90;58.70;;;;;;10326600;28;20201;-47
2023/11/17 23:26:39;;;;;;;9.38;8.45;;;20.90;58.80;;;;;;10339898;28;20217;-44
2023/11/17 23:31:43;;;;;;;9.55;8.55;;;20.90;58.80;;;;;;10338543;28;20201;-45
2023/11/17 23:36:48;;;;;;;9.32;8.10;;;20.90;58.80;;;;;;10342065;28;20261;-47
2023/11/17 23:41:51;;;;;;;8.82;7.93;;;20.90;58.80;;;;;;10333896;28;20205;-46
2023/11/17 23:46:55;;;;;;;9.68;8.68;;;20.90;58.70;;;;;;10337716;28;20243;-45
2023/11/17 23:52:00;;;;;;;9.60;8.18;;;20.90;58.80;;;;;;10335931;28;20210;-48
2023/11/17 23:57:04;;;;;;;9.27;8.00;;;20.90;58.80;;;;;;10351218;28;20299;-46
